Scf Baltica — A8IA5 — position and weather

sailwx.info

Track history (hours):
 
Tides and Currents Weather Stations Pressure Air Temp Water Temp Dewpoint Dewpoint Depression Visibility Wind Speed Wind Dir Waves Ship Positions

Scf Baltica

Last reported at 2016-Sep-15 20:05 UTC. Time now 2016-Sep-25 07:15 UTC.
Position N 55°07' E 004°29'.
Warning: this ship's position is 9 days out of date.

Length 250 m; draft 9 m.

Type: Ship. MMSI: 636012813.

Date/timePositionNaut miles runAvg speedWind from/ knotsBaromVisibWave heightAir tempDewpointWater temp
2016-Sep-15 20:05N 55°07' E 004°29'76 9.9
2016-Sep-15 12:22N 53°51' E 004°28'7 8.8
2016-Sep-15 11:33N 53°46' E 004°19'66 9.4
2016-Sep-15 04:33N 52°51' E 003°18'1212.2
2016-Sep-15 03:33N 52°40' E 003°09'2412.2
2016-Sep-15 01:33N 52°16' E 003°12'3612.1
2016-Sep-14 22:33N 51°59' E 004°05'4 3.7
2016-Sep-14 21:31N 51°56' E 004°10'0 0.0
2016-Sep-14 17:28N 51°56' E 004°10'0 0.0
2016-Sep-14 16:25N 51°56' E 004°10'0 0.0
2016-Sep-14 13:28N 51°56' E 004°10'0 0.0
2016-Sep-14 12:31N 51°56' E 004°10'0 0.0
2016-Sep-14 10:31N 51°56' E 004°10'0 0.0
2016-Sep-14 09:31N 51°56' E 004°10'0 0.0
2016-Sep-14 08:31N 51°56' E 004°10'0 0.0
2016-Sep-14 07:31N 51°56' E 004°10'0 0.0
2016-Sep-14 06:31N 51°56' E 004°10'0 0.0
2016-Sep-14 03:28N 51°56' E 004°10'1 0.2
2016-Sep-13 22:33N 51°57' E 004°09'18 8.8
2016-Sep-13 20:33N 52°03' E 003°42'9410.4
2016-Sep-13 11:33N 53°37' E 003°37'2512.4
2016-Sep-13 09:33N 54°01' E 003°47'22912.0
2016-Sep-12 14:29N 57°50' E 003°55'1211.7
2016-Sep-12 13:26N 58°02' E 003°56'  
2016-Sep-10 09:12N 58°53' E 004°10'1112.5
2016-Sep-10 08:20N 58°42' E 004°08'1212.4
2016-Sep-10 07:21N 58°30' E 004°07'37213.6
2016-Sep-09 04:05N 52°21' E 002°42'712.9
2016-Sep-09 03:33N 52°14' E 002°42'1312.4
2016-Sep-09 02:30N 52°01' E 002°43'1011.0
2016-Sep-09 01:33N 51°51' E 002°40'1111.4
2016-Sep-09 00:33N 51°42' E 002°29'1211.7
2016-Sep-08 23:33N 51°33' E 002°17'1111.2
2016-Sep-08 22:33N 51°23' E 002°09'1212.1
2016-Sep-08 21:33N 51°23' E 002°28'1111.5
2016-Sep-08 20:33N 51°22' E 002°46'1211.8
2016-Sep-08 19:33N 51°24' E 003°05'1212.4
2016-Sep-08 18:33N 51°25' E 003°25'1010.0
2016-Sep-08 17:33N 51°26' E 003°41'10 9.9
2016-Sep-08 16:33N 51°22' E 003°55'6 6.3
2016-Sep-08 15:34N 51°22' E 004°05'8 7.7
2016-Sep-08 14:34N 51°21' E 004°17'0 0.0
2016-Sep-08 13:34N 51°21' E 004°17'0 0.1
2016-Sep-08 12:33N 51°21' E 004°17'0 0.4
2016-Sep-08 11:18N 51°20' E 004°18'0 0.0
2016-Sep-08 10:18N 51°20' E 004°18'0 0.0
2016-Sep-08 09:12N 51°20' E 004°18'0 0.0
2016-Sep-08 07:30N 51°20' E 004°18'0 0.0
2016-Sep-08 06:33N 51°20' E 004°18'0 0.0
2016-Sep-08 04:27N 51°20' E 004°18'0 0.0
2016-Sep-08 03:33N 51°20' E 004°18'0 0.0
2016-Sep-08 02:33N 51°20' E 004°18'0 0.0
2016-Sep-08 01:33N 51°20' E 004°18'0 0.0
2016-Sep-08 00:24N 51°20' E 004°18'0 0.0
2016-Sep-07 23:33N 51°20' E 004°18'0 0.0
2016-Sep-07 22:33N 51°20' E 004°18'0 0.0
2016-Sep-07 21:30N 51°20' E 004°18'0 0.0
2016-Sep-07 20:18N 51°20' E 004°18'0 0.0
2016-Sep-07 19:33N 51°20' E 004°18'0 0.0
2016-Sep-07 18:33N 51°20' E 004°18'0 0.0
2016-Sep-07 17:27N 51°20' E 004°18'0 0.0
2016-Sep-07 16:30N 51°20' E 004°18'0 0.0
2016-Sep-07 15:30N 51°20' E 004°18'0 0.0
2016-Sep-07 14:30N 51°20' E 004°18'0 0.0
2016-Sep-07 13:33N 51°20' E 004°18'0 0.0
2016-Sep-07 12:12N 51°20' E 004°18'0 0.0
2016-Sep-07 11:30N 51°20' E 004°18'0 0.0
2016-Sep-07 10:27N 51°20' E 004°18'0 0.0
2016-Sep-07 09:30N 51°20' E 004°18'0 0.0
2016-Sep-07 08:33N 51°20' E 004°18'0 0.0
2016-Sep-07 07:33N 51°20' E 004°18'0 0.0
2016-Sep-07 06:18N 51°20' E 004°18'0 0.0
2016-Sep-07 04:30N 51°20' E 004°18'0 0.0
2016-Sep-07 03:33N 51°20' E 004°18'0 0.0
2016-Sep-07 02:27N 51°20' E 004°18'0 0.0
2016-Sep-07 01:27N 51°20' E 004°18'0 0.0
2016-Sep-07 00:30N 51°20' E 004°18'0 0.0
2016-Sep-06 23:15N 51°20' E 004°18'0 0.0
2016-Sep-06 22:33N 51°20' E 004°18'0 0.0
2016-Sep-06 21:24N 51°20' E 004°18'0 0.0
2016-Sep-06 20:33N 51°20' E 004°18'0 0.0
2016-Sep-06 19:30N 51°20' E 004°18'0 0.0
2016-Sep-06 18:27N 51°20' E 004°18'0 0.0
2016-Sep-06 17:27N 51°20' E 004°18'0 0.0
2016-Sep-06 16:30N 51°20' E 004°18'0 0.0
2016-Sep-06 15:27N 51°20' E 004°18'0 0.0
2016-Sep-06 13:03N 51°20' E 004°18'0 0.0
2016-Sep-06 10:06N 51°20' E 004°18'0 0.0
2016-Sep-06 09:30N 51°20' E 004°18'0 0.0
2016-Sep-06 08:30N 51°20' E 004°18'0 0.0
2016-Sep-06 07:33N 51°20' E 004°18'0 0.4
2016-Sep-06 06:34N 51°21' E 004°17'1 0.4
2016-Sep-06 04:33N 51°21' E 004°16'7 7.2
2016-Sep-06 03:33N 51°22' E 004°05'9 8.7
2016-Sep-06 02:33N 51°21' E 003°51'1111.0
2016-Sep-06 01:33N 51°26' E 003°35'1212.2
2016-Sep-06 00:33N 51°25' E 003°16'1111.2
2016-Sep-05 23:33N 51°25' E 002°58'10 9.5
2016-Sep-05 22:33N 51°23' E 002°43'5 5.3
2016-Sep-05 21:32N 51°26' E 002°35'0 0.1
2016-Sep-05 20:31N 51°26' E 002°35'  
Track history (hours):
 
Tides and Currents Weather Stations Pressure Air Temp Water Temp Dewpoint Dewpoint Depression Visibility Wind Speed Wind Dir Waves Ship Positions

Scf Baltica

Last reported at 2016-Sep-15 20:05 UTC. Time now 2016-Sep-25 07:15 UTC.
Position N 55°07' E 004°29'.
Warning: this ship's position is 9 days out of date.

Length 250 m; draft 9 m.

Type: Ship. MMSI: 636012813.

Date/timePositionNaut miles runAvg speedWind from/ knotsBaromVisibWave heightAir tempDewpointWater temp
2016-Sep-15 20:05N 55°07' E 004°29'76 9.9
2016-Sep-15 12:22N 53°51' E 004°28'7 8.8
2016-Sep-15 11:33N 53°46' E 004°19'66 9.4
2016-Sep-15 04:33N 52°51' E 003°18'1212.2
2016-Sep-15 03:33N 52°40' E 003°09'2412.2
2016-Sep-15 01:33N 52°16' E 003°12'3612.1
2016-Sep-14 22:33N 51°59' E 004°05'4 3.7
2016-Sep-14 21:31N 51°56' E 004°10'0 0.0
2016-Sep-14 17:28N 51°56' E 004°10'0 0.0
2016-Sep-14 16:25N 51°56' E 004°10'0 0.0
2016-Sep-14 13:28N 51°56' E 004°10'0 0.0
2016-Sep-14 12:31N 51°56' E 004°10'0 0.0
2016-Sep-14 10:31N 51°56' E 004°10'0 0.0
2016-Sep-14 09:31N 51°56' E 004°10'0 0.0
2016-Sep-14 08:31N 51°56' E 004°10'0 0.0
2016-Sep-14 07:31N 51°56' E 004°10'0 0.0
2016-Sep-14 06:31N 51°56' E 004°10'0 0.0
2016-Sep-14 03:28N 51°56' E 004°10'1 0.2
2016-Sep-13 22:33N 51°57' E 004°09'18 8.8
2016-Sep-13 20:33N 52°03' E 003°42'9410.4
2016-Sep-13 11:33N 53°37' E 003°37'2512.4
2016-Sep-13 09:33N 54°01' E 003°47'22912.0
2016-Sep-12 14:29N 57°50' E 003°55'1211.7
2016-Sep-12 13:26N 58°02' E 003°56'  
2016-Sep-10 09:12N 58°53' E 004°10'1112.5
2016-Sep-10 08:20N 58°42' E 004°08'1212.4
2016-Sep-10 07:21N 58°30' E 004°07'37213.6
2016-Sep-09 04:05N 52°21' E 002°42'712.9
2016-Sep-09 03:33N 52°14' E 002°42'1312.4
2016-Sep-09 02:30N 52°01' E 002°43'1011.0
2016-Sep-09 01:33N 51°51' E 002°40'1111.4
2016-Sep-09 00:33N 51°42' E 002°29'1211.7
2016-Sep-08 23:33N 51°33' E 002°17'1111.2
2016-Sep-08 22:33N 51°23' E 002°09'1212.1
2016-Sep-08 21:33N 51°23' E 002°28'1111.5
2016-Sep-08 20:33N 51°22' E 002°46'1211.8
2016-Sep-08 19:33N 51°24' E 003°05'1212.4
2016-Sep-08 18:33N 51°25' E 003°25'1010.0
2016-Sep-08 17:33N 51°26' E 003°41'10 9.9
2016-Sep-08 16:33N 51°22' E 003°55'6 6.3
2016-Sep-08 15:34N 51°22' E 004°05'8 7.7
2016-Sep-08 14:34N 51°21' E 004°17'0 0.0
2016-Sep-08 13:34N 51°21' E 004°17'0 0.1
2016-Sep-08 12:33N 51°21' E 004°17'0 0.4
2016-Sep-08 11:18N 51°20' E 004°18'0 0.0
2016-Sep-08 10:18N 51°20' E 004°18'0 0.0
2016-Sep-08 09:12N 51°20' E 004°18'0 0.0
2016-Sep-08 07:30N 51°20' E 004°18'0 0.0
2016-Sep-08 06:33N 51°20' E 004°18'0 0.0
2016-Sep-08 04:27N 51°20' E 004°18'0 0.0
2016-Sep-08 03:33N 51°20' E 004°18'0 0.0
2016-Sep-08 02:33N 51°20' E 004°18'0 0.0
2016-Sep-08 01:33N 51°20' E 004°18'0 0.0
2016-Sep-08 00:24N 51°20' E 004°18'0 0.0
2016-Sep-07 23:33N 51°20' E 004°18'0 0.0
2016-Sep-07 22:33N 51°20' E 004°18'0 0.0
2016-Sep-07 21:30N 51°20' E 004°18'0 0.0
2016-Sep-07 20:18N 51°20' E 004°18'0 0.0
2016-Sep-07 19:33N 51°20' E 004°18'0 0.0
2016-Sep-07 18:33N 51°20' E 004°18'0 0.0
2016-Sep-07 17:27N 51°20' E 004°18'0 0.0
2016-Sep-07 16:30N 51°20' E 004°18'0 0.0
2016-Sep-07 15:30N 51°20' E 004°18'0 0.0
2016-Sep-07 14:30N 51°20' E 004°18'0 0.0
2016-Sep-07 13:33N 51°20' E 004°18'0 0.0
2016-Sep-07 12:12N 51°20' E 004°18'0 0.0
2016-Sep-07 11:30N 51°20' E 004°18'0 0.0
2016-Sep-07 10:27N 51°20' E 004°18'0 0.0
2016-Sep-07 09:30N 51°20' E 004°18'0 0.0
2016-Sep-07 08:33N 51°20' E 004°18'0 0.0
2016-Sep-07 07:33N 51°20' E 004°18'0 0.0
2016-Sep-07 06:18N 51°20' E 004°18'0 0.0
2016-Sep-07 04:30N 51°20' E 004°18'0 0.0
2016-Sep-07 03:33N 51°20' E 004°18'0 0.0
2016-Sep-07 02:27N 51°20' E 004°18'0 0.0
2016-Sep-07 01:27N 51°20' E 004°18'0 0.0
2016-Sep-07 00:30N 51°20' E 004°18'0 0.0
2016-Sep-06 23:15N 51°20' E 004°18'0 0.0
2016-Sep-06 22:33N 51°20' E 004°18'0 0.0
2016-Sep-06 21:24N 51°20' E 004°18'0 0.0
2016-Sep-06 20:33N 51°20' E 004°18'0 0.0
2016-Sep-06 19:30N 51°20' E 004°18'0 0.0
2016-Sep-06 18:27N 51°20' E 004°18'0 0.0
2016-Sep-06 17:27N 51°20' E 004°18'0 0.0
2016-Sep-06 16:30N 51°20' E 004°18'0 0.0
2016-Sep-06 15:27N 51°20' E 004°18'0 0.0
2016-Sep-06 13:03N 51°20' E 004°18'0 0.0
2016-Sep-06 10:06N 51°20' E 004°18'0 0.0
2016-Sep-06 09:30N 51°20' E 004°18'0 0.0
2016-Sep-06 08:30N 51°20' E 004°18'0 0.0
2016-Sep-06 07:33N 51°20' E 004°18'0 0.4
2016-Sep-06 06:34N 51°21' E 004°17'1 0.4
2016-Sep-06 04:33N 51°21' E 004°16'7 7.2
2016-Sep-06 03:33N 51°22' E 004°05'9 8.7
2016-Sep-06 02:33N 51°21' E 003°51'1111.0
2016-Sep-06 01:33N 51°26' E 003°35'1212.2
2016-Sep-06 00:33N 51°25' E 003°16'1111.2
2016-Sep-05 23:33N 51°25' E 002°58'10 9.5
2016-Sep-05 22:33N 51°23' E 002°43'5 5.3
2016-Sep-05 21:32N 51°26' E 002°35'0 0.1
2016-Sep-05 20:31N 51°26' E 002°35'  

Dump ship's entire track history